KNBG/NBG METAR and TAF weather

Enter ICAO airport designator
Station Type Date Time Source
KNBG METAR 2024/04/18 06:11 UTC NOAA

KNBG 180611Z AUTO 00000KT 9SM BKN029 22/21 A3004 RMK AO2 T02220211 $


Station Type Date Time Source
KNBG Decoded METAR 2024/04/18 06:11 UTC NOAA

NEW ORLEANS NAVAL AIR STN, LA, United States (KNBG) 29-50N 90-01W
Apr 18, 2024 - 02:11 AM EDT / 2024.04.18 0611 UTC
Wind: Calm:0
Visibility: 9 mile(s):0
Sky conditions: mostly cloudy
Temperature: 72.0 F (22.2 C)
Dew Point: 70.0 F (21.1 C)
Relative Humidity: 93%
Pressure (altimeter): 30.04 in. Hg (1017 hPa)
ob: KNBG 180611Z AUTO 00000KT 9SM BKN029 22/21 A3004 RMK AO2 T02220211
cycle: 6

Station Type Date Time Source
KNBG TAF 2024/04/18 18:36 UTC NOAA